LHT5MR EDBP-EDAZ
Flight info
| Callsign | LHT5MR |
|---|---|
| Flight time | 0h 21m |
| Altitude | 19000 |
| Route | PABMI M726 LASLU DCT MOSEX |
| Aircraft | A20N/M-SDE2E3FGHIRWXY/LB1 |
Departure
| Time | 2026-05-07 22:44 |
|---|---|
| Airport | Pinnow Airfield (EDBP) |
Arrival
| Time | 2026-05-07 23:05 |
|---|---|
| Airport | Schönhagen Airfield (EDAZ) |
| Time | Latitude | Longitude | Altitude | Speed | Heading |
|---|---|---|---|---|---|
| 2026-05-07 22:42 | 53.61175 | 11.56135 | 153 ft | 0 kts | 11° |
| 2026-05-07 22:43 | 53.61353 | 11.56199 | 155 ft | 77 kts | 13° |
| 2026-05-07 22:44 | 53.62138 | 11.56453 | 733 ft | 128 kts | 13° |
| 2026-05-07 22:44 | 53.62924 | 11.57301 | 1654 ft | 159 kts | 66° |
| 2026-05-07 22:44 | 53.62844 | 11.59274 | 2740 ft | 193 kts | 118° |
| 2026-05-07 22:44 | 53.61675 | 11.60662 | 4202 ft | 224 kts | 158° |
| 2026-05-07 22:45 | 53.60098 | 11.61262 | 5804 ft | 241 kts | 167° |
| 2026-05-07 22:45 | 53.58944 | 11.61614 | 6552 ft | 268 kts | 167° |
| 2026-05-07 22:45 | 53.56129 | 11.62472 | 6687 ft | 349 kts | 168° |
| 2026-05-07 22:45 | 53.54472 | 11.62969 | 6789 ft | 379 kts | 168° |
| 2026-05-07 22:46 | 53.51833 | 11.63729 | 7909 ft | 384 kts | 169° |
| 2026-05-07 22:46 | 53.49219 | 11.64455 | 8527 ft | 382 kts | 171° |
| 2026-05-07 22:46 | 53.46574 | 11.65187 | 8294 ft | 382 kts | 170° |
| 2026-05-07 22:46 | 53.43956 | 11.65915 | 7902 ft | 380 kts | 168° |
| 2026-05-07 22:47 | 53.41486 | 11.67449 | 7520 ft | 376 kts | 149° |
| 2026-05-07 22:47 | 53.39433 | 11.70047 | 7197 ft | 371 kts | 136° |
| 2026-05-07 22:47 | 53.37584 | 11.73064 | 7197 ft | 374 kts | 134° |
| 2026-05-07 22:47 | 53.35718 | 11.76173 | 7947 ft | 383 kts | 135° |
| 2026-05-07 22:48 | 53.33766 | 11.79301 | 9064 ft | 390 kts | 137° |
| 2026-05-07 22:48 | 53.31731 | 11.82434 | 10041 ft | 399 kts | 139° |
| 2026-05-07 22:48 | 53.29682 | 11.85503 | 10558 ft | 403 kts | 140° |
| 2026-05-07 22:48 | 53.27565 | 11.88631 | 10652 ft | 404 kts | 140° |
| 2026-05-07 22:49 | 53.25444 | 11.91747 | 10656 ft | 404 kts | 140° |
| 2026-05-07 22:49 | 53.23330 | 11.94848 | 10657 ft | 404 kts | 140° |
| 2026-05-07 22:49 | 53.21249 | 11.97900 | 10654 ft | 405 kts | 140° |
| 2026-05-07 22:49 | 53.19126 | 12.01013 | 10650 ft | 404 kts | 140° |
| 2026-05-07 22:50 | 53.17003 | 12.04121 | 10651 ft | 404 kts | 140° |
| 2026-05-07 22:50 | 53.14907 | 12.07185 | 10653 ft | 405 kts | 140° |
| 2026-05-07 22:50 | 53.12776 | 12.10294 | 10652 ft | 405 kts | 140° |
| 2026-05-07 22:50 | 53.10650 | 12.13392 | 10648 ft | 405 kts | 140° |
| 2026-05-07 22:51 | 53.08541 | 12.16464 | 10649 ft | 405 kts | 140° |
| 2026-05-07 22:51 | 53.06440 | 12.19519 | 10650 ft | 405 kts | 140° |
| 2026-05-07 22:51 | 53.04305 | 12.22617 | 10651 ft | 405 kts | 140° |
| 2026-05-07 22:51 | 53.02172 | 12.25710 | 10654 ft | 405 kts | 140° |
| 2026-05-07 22:52 | 53.00041 | 12.28796 | 10649 ft | 405 kts | 140° |
| 2026-05-07 22:52 | 52.97924 | 12.31857 | 10657 ft | 405 kts | 140° |
| 2026-05-07 22:52 | 52.95832 | 12.34878 | 10651 ft | 405 kts | 140° |
| 2026-05-07 22:52 | 52.93685 | 12.37975 | 10649 ft | 405 kts | 140° |
| 2026-05-07 22:53 | 52.91551 | 12.41050 | 10651 ft | 405 kts | 140° |
| 2026-05-07 22:53 | 52.89439 | 12.44090 | 10645 ft | 405 kts | 140° |
| 2026-05-07 22:53 | 52.87307 | 12.47153 | 10649 ft | 405 kts | 140° |
| 2026-05-07 22:53 | 52.85170 | 12.50219 | 10646 ft | 405 kts | 140° |
| 2026-05-07 22:54 | 52.83027 | 12.53290 | 10648 ft | 405 kts | 141° |
| 2026-05-07 22:54 | 52.80925 | 12.56298 | 10649 ft | 405 kts | 141° |
| 2026-05-07 22:54 | 52.78778 | 12.59368 | 10647 ft | 405 kts | 141° |
| 2026-05-07 22:54 | 52.76637 | 12.62425 | 10645 ft | 405 kts | 141° |
| 2026-05-07 22:55 | 52.74506 | 12.65463 | 10641 ft | 405 kts | 141° |
| 2026-05-07 22:55 | 52.72363 | 12.68513 | 10647 ft | 405 kts | 141° |
| 2026-05-07 22:55 | 52.70223 | 12.71555 | 10642 ft | 405 kts | 141° |
| 2026-05-07 22:55 | 52.68278 | 12.74315 | 10645 ft | 405 kts | 141° |
| 2026-05-07 22:56 | 52.66132 | 12.77359 | 10644 ft | 405 kts | 141° |
| 2026-05-07 22:56 | 52.64015 | 12.80357 | 10646 ft | 405 kts | 141° |
| 2026-05-07 22:56 | 52.61854 | 12.83414 | 10642 ft | 405 kts | 141° |
| 2026-05-07 22:56 | 52.59710 | 12.86442 | 10641 ft | 405 kts | 141° |
| 2026-05-07 22:57 | 52.57602 | 12.89417 | 10642 ft | 405 kts | 141° |
| 2026-05-07 22:57 | 52.55450 | 12.92449 | 10643 ft | 405 kts | 141° |
| 2026-05-07 22:57 | 52.53302 | 12.95472 | 10619 ft | 404 kts | 141° |
| 2026-05-07 22:57 | 52.51177 | 12.98458 | 10180 ft | 399 kts | 141° |
| 2026-05-07 22:58 | 52.49096 | 13.01378 | 9685 ft | 398 kts | 141° |
| 2026-05-07 22:58 | 52.46986 | 13.04333 | 9243 ft | 395 kts | 141° |
| 2026-05-07 22:58 | 52.44886 | 13.07271 | 9063 ft | 397 kts | 141° |
| 2026-05-07 22:58 | 52.42842 | 13.10129 | 8630 ft | 371 kts | 141° |
| 2026-05-07 22:59 | 52.40973 | 13.12746 | 7997 ft | 341 kts | 141° |
| 2026-05-07 22:59 | 52.39189 | 13.15244 | 6931 ft | 329 kts | 141° |
| 2026-05-07 22:59 | 52.37469 | 13.17641 | 5637 ft | 328 kts | 140° |
| 2026-05-07 22:59 | 52.35732 | 13.20043 | 4551 ft | 319 kts | 140° |
| 2026-05-07 23:00 | 52.34060 | 13.22342 | 3576 ft | 307 kts | 140° |
| 2026-05-07 23:00 | 52.32469 | 13.24530 | 2782 ft | 299 kts | 138° |
| 2026-05-07 23:00 | 52.30902 | 13.26706 | 2293 ft | 287 kts | 137° |
| 2026-05-07 23:00 | 52.29443 | 13.28734 | 2044 ft | 263 kts | 137° |
| 2026-05-07 23:01 | 52.28073 | 13.30638 | 1709 ft | 247 kts | 137° |
| 2026-05-07 23:01 | 52.26833 | 13.32359 | 1716 ft | 228 kts | 137° |
| 2026-05-07 23:01 | 52.25590 | 13.33829 | 1716 ft | 217 kts | 155° |
| 2026-05-07 23:01 | 52.24144 | 13.34079 | 1743 ft | 204 kts | 189° |
| 2026-05-07 23:02 | 52.23007 | 13.33002 | 1715 ft | 179 kts | 231° |
| 2026-05-07 23:02 | 52.22557 | 13.31361 | 1732 ft | 140 kts | 261° |
| 2026-05-07 23:02 | 52.22467 | 13.29914 | 1727 ft | 127 kts | 266° |
| 2026-05-07 23:02 | 52.22309 | 13.28261 | 1708 ft | 150 kts | 261° |
| 2026-05-07 23:03 | 52.22086 | 13.26708 | 1735 ft | 138 kts | 257° |
| 2026-05-07 23:03 | 52.21843 | 13.25203 | 1612 ft | 135 kts | 257° |
| 2026-05-07 23:03 | 52.21608 | 13.23765 | 1325 ft | 131 kts | 257° |
| 2026-05-07 23:03 | 52.21385 | 13.22370 | 945 ft | 129 kts | 257° |
| 2026-05-07 23:04 | 52.21166 | 13.20979 | 649 ft | 122 kts | 257° |
| 2026-05-07 23:04 | 52.20961 | 13.19646 | 462 ft | 122 kts | 257° |
| 2026-05-07 23:04 | 52.20755 | 13.18314 | 328 ft | 120 kts | 256° |
| 2026-05-07 23:04 | 52.20545 | 13.16995 | 215 ft | 120 kts | 256° |
| 2026-05-07 23:05 | 52.20359 | 13.15785 | 150 ft | 81 kts | 257° |
| 2026-05-07 23:05 | 52.20297 | 13.15387 | 146 ft | 19 kts | 252° |
| 2026-05-07 23:05 | 52.20254 | 13.15136 | 143 ft | 26 kts | 255° |
| 2026-05-07 23:05 | 52.20249 | 13.14988 | 141 ft | 9 kts | 317° |
| 2026-05-07 23:06 | 52.20310 | 13.14976 | 142 ft | 3 kts | 44° |
| 2026-05-07 23:06 | 52.20312 | 13.14994 | 142 ft | 4 kts | 75° |
| 2026-05-07 23:06 | 52.20326 | 13.15067 | 143 ft | 10 kts | 72° |
| 2026-05-07 23:06 | 52.20342 | 13.15147 | 144 ft | 1 kts | 66° |
| 2026-05-07 23:07 | 52.20356 | 13.15155 | 144 ft | 3 kts | 5° |
| 2026-05-07 23:07 | 52.20393 | 13.15132 | 144 ft | 4 kts | 323° |
| 2026-05-07 23:07 | 52.20392 | 13.15085 | 144 ft | 1 kts | 253° |
| 2026-05-07 23:07 | 52.20389 | 13.15060 | 144 ft | 0 kts | 256° |